sensor_id;sensor_type;location;lat;lon;timestamp;pressure;altitude;pressure_sealevel;temperature;humidity
21182;BME280;10749;46.296;7.524;2022-11-20T00:02:15;94505.25;;;7.69;49.64
21182;BME280;10749;46.296;7.524;2022-11-20T00:04:40;94516.63;;;7.70;49.99
21182;BME280;10749;46.296;7.524;2022-11-20T00:07:05;94525.97;;;7.72;49.74
21182;BME280;10749;46.296;7.524;2022-11-20T00:09:31;94522.88;;;7.69;50.11
21182;BME280;10749;46.296;7.524;2022-11-20T00:11:56;94502.84;;;7.52;49.91
21182;BME280;10749;46.296;7.524;2022-11-20T00:14:21;94531.59;;;7.69;50.14
21182;BME280;10749;46.296;7.524;2022-11-20T00:16:46;94529.44;;;7.73;50.11
21182;BME280;10749;46.296;7.524;2022-11-20T00:19:12;94529.25;;;7.74;49.83
21182;BME280;10749;46.296;7.524;2022-11-20T00:21:37;94536.00;;;7.77;49.71
21182;BME280;10749;46.296;7.524;2022-11-20T00:24:02;94544.56;;;7.71;50.43
21182;BME280;10749;46.296;7.524;2022-11-20T00:26:28;94535.69;;;7.72;50.15
21182;BME280;10749;46.296;7.524;2022-11-20T00:28:57;94542.31;;;7.60;50.06
21182;BME280;10749;46.296;7.524;2022-11-20T00:31:23;94541.84;;;7.56;49.70
21182;BME280;10749;46.296;7.524;2022-11-20T00:33:48;94542.66;;;7.57;49.36
21182;BME280;10749;46.296;7.524;2022-11-20T00:36:16;94542.63;;;7.65;49.92
21182;BME280;10749;46.296;7.524;2022-11-20T00:38:42;94546.91;;;7.66;50.30
21182;BME280;10749;46.296;7.524;2022-11-20T00:41:10;94544.91;;;7.68;50.40
21182;BME280;10749;46.296;7.524;2022-11-20T00:43:36;94553.50;;;7.70;50.32
21182;BME280;10749;46.296;7.524;2022-11-20T00:46:02;94553.66;;;7.68;50.64
21182;BME280;10749;46.296;7.524;2022-11-20T00:48:28;94548.38;;;7.68;50.74
21182;BME280;10749;46.296;7.524;2022-11-20T00:50:54;94549.84;;;7.71;50.78
21182;BME280;10749;46.296;7.524;2022-11-20T00:53:20;94545.59;;;7.70;50.75
21182;BME280;10749;46.296;7.524;2022-11-20T00:55:57;94547.22;;;7.71;50.77
21182;BME280;10749;46.296;7.524;2022-11-20T00:58:24;94549.72;;;7.64;50.72
21182;BME280;10749;46.296;7.524;2022-11-20T01:00:50;94562.41;;;7.61;51.19
21182;BME280;10749;46.296;7.524;2022-11-20T01:03:17;94565.38;;;7.58;50.98
21182;BME280;10749;46.296;7.524;2022-11-20T01:05:42;94570.66;;;7.58;50.85
21182;BME280;10749;46.296;7.524;2022-11-20T01:08:08;94566.69;;;7.62;50.64
21182;BME280;10749;46.296;7.524;2022-11-20T01:10:33;94554.97;;;7.64;50.43
21182;BME280;10749;46.296;7.524;2022-11-20T01:12:58;94569.31;;;7.62;50.63
21182;BME280;10749;46.296;7.524;2022-11-20T01:15:42;94570.47;;;7.51;50.74
21182;BME280;10749;46.296;7.524;2022-11-20T01:18:08;94571.81;;;7.39;51.18
21182;BME280;10749;46.296;7.524;2022-11-20T01:20:36;94573.28;;;7.33;51.27
21182;BME280;10749;46.296;7.524;2022-11-20T01:23:04;94579.88;;;7.37;51.12
21182;BME280;10749;46.296;7.524;2022-11-20T01:25:30;94580.88;;;7.36;51.04
21182;BME280;10749;46.296;7.524;2022-11-20T01:27:56;94586.78;;;7.30;51.51
21182;BME280;10749;46.296;7.524;2022-11-20T01:30:21;94590.59;;;7.20;51.69
21182;BME280;10749;46.296;7.524;2022-11-20T01:32:46;94584.81;;;7.08;51.70
21182;BME280;10749;46.296;7.524;2022-11-20T01:35:11;94590.75;;;7.10;51.56
21182;BME280;10749;46.296;7.524;2022-11-20T01:37:38;94593.72;;;7.07;51.83
21182;BME280;10749;46.296;7.524;2022-11-20T01:40:04;94600.94;;;7.05;51.76
21182;BME280;10749;46.296;7.524;2022-11-20T01:42:29;94600.94;;;7.05;51.92
21182;BME280;10749;46.296;7.524;2022-11-20T01:46:32;94600.94;;;7.05;51.93
21182;BME280;10749;46.296;7.524;2022-11-20T01:48:38;94600.28;;;7.03;52.19
21182;BME280;10749;46.296;7.524;2022-11-20T01:51:06;94601.44;;;7.01;52.16
21182;BME280;10749;46.296;7.524;2022-11-20T01:53:36;94599.28;;;7.04;52.07
21182;BME280;10749;46.296;7.524;2022-11-20T01:56:05;94600.59;;;7.08;52.01
21182;BME280;10749;46.296;7.524;2022-11-20T01:58:35;94604.06;;;7.09;52.11
21182;BME280;10749;46.296;7.524;2022-11-20T02:01:04;94602.25;;;7.09;52.03
21182;BME280;10749;46.296;7.524;2022-11-20T02:03:29;94606.38;;;6.95;52.12
21182;BME280;10749;46.296;7.524;2022-11-20T02:06:01;94605.22;;;6.90;52.27
21182;BME280;10749;46.296;7.524;2022-11-20T02:08:29;94608.81;;;6.89;52.32
21182;BME280;10749;46.296;7.524;2022-11-20T02:10:55;94610.81;;;6.87;52.44
21182;BME280;10749;46.296;7.524;2022-11-20T02:13:20;94612.13;;;6.83;52.65
21182;BME280;10749;46.296;7.524;2022-11-20T02:16:05;94609.47;;;6.75;52.50
21182;BME280;10749;46.296;7.524;2022-11-20T02:18:33;94612.41;;;6.72;52.71
21182;BME280;10749;46.296;7.524;2022-11-20T02:21:05;94617.31;;;6.67;52.71
21182;BME280;10749;46.296;7.524;2022-11-20T02:26:03;94612.59;;;6.70;52.59
21182;BME280;10749;46.296;7.524;2022-11-20T02:28:31;94612.06;;;6.67;52.66
21182;BME280;10749;46.296;7.524;2022-11-20T02:30:56;94623.75;;;6.72;52.59
21182;BME280;10749;46.296;7.524;2022-11-20T02:33:21;94614.53;;;6.68;52.55
21182;BME280;10749;46.296;7.524;2022-11-20T02:35:47;94612.06;;;6.67;52.59
21182;BME280;10749;46.296;7.524;2022-11-20T02:38:13;94616.69;;;6.65;52.88
21182;BME280;10749;46.296;7.524;2022-11-20T02:40:39;94616.81;;;6.63;52.78
21182;BME280;10749;46.296;7.524;2022-11-20T02:43:05;94614.38;;;6.62;52.92
21182;BME280;10749;46.296;7.524;2022-11-20T02:45:30;94615.66;;;6.49;52.82
21182;BME280;10749;46.296;7.524;2022-11-20T02:47:55;94613.69;;;6.52;52.98
21182;BME280;10749;46.296;7.524;2022-11-20T02:50:21;94614.66;;;6.50;53.01
21182;BME280;10749;46.296;7.524;2022-11-20T02:52:46;94625.19;;;6.59;52.76
21182;BME280;10749;46.296;7.524;2022-11-20T02:55:12;94615.47;;;6.43;52.96
21182;BME280;10749;46.296;7.524;2022-11-20T02:57:37;94612.69;;;6.44;52.87
21182;BME280;10749;46.296;7.524;2022-11-20T03:00:03;94613.50;;;6.45;52.88
21182;BME280;10749;46.296;7.524;2022-11-20T03:02:30;94613.50;;;6.45;52.95
21182;BME280;10749;46.296;7.524;2022-11-20T03:04:55;94609.09;;;6.45;53.12
21182;BME280;10749;46.296;7.524;2022-11-20T03:07:20;94612.34;;;6.47;53.13
21182;BME280;10749;46.296;7.524;2022-11-20T03:09:46;94611.06;;;6.52;53.09
21182;BME280;10749;46.296;7.524;2022-11-20T03:12:11;94601.34;;;6.44;53.10
21182;BME280;10749;46.296;7.524;2022-11-20T03:14:36;94609.59;;;6.49;52.91
21182;BME280;10749;46.296;7.524;2022-11-20T03:17:02;94609.59;;;6.49;52.87
21182;BME280;10749;46.296;7.524;2022-11-20T03:19:27;94605.97;;;6.50;53.24
21182;BME280;10749;46.296;7.524;2022-11-20T03:21:53;94608.59;;;6.50;53.26
21182;BME280;10749;46.296;7.524;2022-11-20T03:24:18;94609.25;;;6.52;53.30
21182;BME280;10749;46.296;7.524;2022-11-20T03:26:43;94614.16;;;6.47;53.21
21182;BME280;10749;46.296;7.524;2022-11-20T03:29:09;94614.34;;;6.45;53.18
21182;BME280;10749;46.296;7.524;2022-11-20T03:31:36;94619.75;;;6.44;53.08
21182;BME280;10749;46.296;7.524;2022-11-20T03:34:03;94618.72;;;6.29;53.26
21182;BME280;10749;46.296;7.524;2022-11-20T03:36:29;94617.34;;;6.09;53.47
21182;BME280;10749;46.296;7.524;2022-11-20T03:38:56;94622.09;;;6.13;53.22
21182;BME280;10749;46.296;7.524;2022-11-20T03:41:24;94622.06;;;6.05;53.61
21182;BME280;10749;46.296;7.524;2022-11-20T03:43:51;94625.50;;;6.06;53.86
21182;BME280;10749;46.296;7.524;2022-11-20T03:46:17;94619.44;;;6.05;53.77
21182;BME280;10749;46.296;7.524;2022-11-20T03:48:42;94620.94;;;6.08;53.58
21182;BME280;10749;46.296;7.524;2022-11-20T03:51:13;94626.28;;;5.98;53.98
21182;BME280;10749;46.296;7.524;2022-11-20T03:53:40;94626.97;;;6.00;53.73
21182;BME280;10749;46.296;7.524;2022-11-20T03:56:06;94626.63;;;5.95;53.92
21182;BME280;10749;46.296;7.524;2022-11-20T03:58:33;94629.84;;;5.89;54.04
21182;BME280;10749;46.296;7.524;2022-11-20T04:01:04;94636.91;;;5.88;53.97
21182;BME280;10749;46.296;7.524;2022-11-20T04:03:30;94637.50;;;5.82;54.14
21182;BME280;10749;46.296;7.524;2022-11-20T04:06:07;94646.88;;;5.85;54.05
21182;BME280;10749;46.296;7.524;2022-11-20T04:08:34;94639.38;;;5.90;54.14
21182;BME280;10749;46.296;7.524;2022-11-20T04:11:18;94652.66;;;5.88;54.04
21182;BME280;10749;46.296;7.524;2022-11-20T04:13:47;94640.72;;;5.94;54.08
21182;BME280;10749;46.296;7.524;2022-11-20T04:16:13;94639.56;;;5.96;54.27
21182;BME280;10749;46.296;7.524;2022-11-20T04:18:39;94649.28;;;5.96;54.24
21182;BME280;10749;46.296;7.524;2022-11-20T04:21:04;94648.25;;;5.89;54.16
21182;BME280;10749;46.296;7.524;2022-11-20T04:23:30;94655.97;;;5.90;54.19
21182;BME280;10749;46.296;7.524;2022-11-20T04:28:28;94650.59;;;5.92;54.21
21182;BME280;10749;46.296;7.524;2022-11-20T04:30:53;94651.03;;;5.87;54.40
21182;BME280;10749;46.296;7.524;2022-11-20T04:33:19;94650.50;;;5.84;54.34
21182;BME280;10749;46.296;7.524;2022-11-20T04:35:47;94652.78;;;5.79;54.37
21182;BME280;10749;46.296;7.524;2022-11-20T04:38:12;94654.38;;;5.80;54.45
21182;BME280;10749;46.296;7.524;2022-11-20T04:40:38;94658.22;;;5.85;54.44
21182;BME280;10749;46.296;7.524;2022-11-20T04:43:03;94659.34;;;5.83;54.47
21182;BME280;10749;46.296;7.524;2022-11-20T04:45:28;94661.97;;;5.83;54.33
21182;BME280;10749;46.296;7.524;2022-11-20T04:47:54;94658.03;;;5.79;54.40
21182;BME280;10749;46.296;7.524;2022-11-20T04:50:19;94661.63;;;5.78;54.30
21182;BME280;10749;46.296;7.524;2022-11-20T04:52:44;94661.63;;;5.78;54.42
21182;BME280;10749;46.296;7.524;2022-11-20T04:55:10;94661.25;;;5.73;54.44
21182;BME280;10749;46.296;7.524;2022-11-20T04:57:35;94660.59;;;5.71;54.44
21182;BME280;10749;46.296;7.524;2022-11-20T05:00:00;94659.53;;;5.64;54.35
21182;BME280;10749;46.296;7.524;2022-11-20T05:02:25;94659.22;;;5.58;54.18
21182;BME280;10749;46.296;7.524;2022-11-20T05:04:51;94675.28;;;5.64;54.32
21182;BME280;10749;46.296;7.524;2022-11-20T05:07:16;94663.06;;;5.72;54.53
21182;BME280;10749;46.296;7.524;2022-11-20T05:09:41;94662.59;;;5.77;54.60
21182;BME280;10749;46.296;7.524;2022-11-20T05:12:08;94663.19;;;5.88;54.29
21182;BME280;10749;46.296;7.524;2022-11-20T05:14:33;94666.47;;;5.90;54.54
21182;BME280;10749;46.296;7.524;2022-11-20T05:16:58;94663.72;;;5.92;54.56
21182;BME280;10749;46.296;7.524;2022-11-20T05:19:24;94663.03;;;5.90;54.44
21182;BME280;10749;46.296;7.524;2022-11-20T05:21:49;94667.31;;;5.91;54.56
21182;BME280;10749;46.296;7.524;2022-11-20T05:24:14;94669.63;;;5.94;53.99
21182;BME280;10749;46.296;7.524;2022-11-20T05:26:39;94674.72;;;5.95;54.56
21182;BME280;10749;46.296;7.524;2022-11-20T05:29:05;94665.19;;;5.94;54.64
21182;BME280;10749;46.296;7.524;2022-11-20T05:31:30;94672.25;;;5.94;54.42
21182;BME280;10749;46.296;7.524;2022-11-20T05:33:56;94667.06;;;5.84;54.15
21182;BME280;10749;46.296;7.524;2022-11-20T05:36:22;94670.16;;;5.80;54.44
21182;BME280;10749;46.296;7.524;2022-11-20T05:38:47;94675.72;;;5.77;54.83
21182;BME280;10749;46.296;7.524;2022-11-20T05:41:15;94676.78;;;5.84;54.63
21182;BME280;10749;46.296;7.524;2022-11-20T05:43:42;94683.00;;;5.83;54.41
21182;BME280;10749;46.296;7.524;2022-11-20T05:46:10;94683.97;;;5.82;54.20
21182;BME280;10749;46.296;7.524;2022-11-20T05:48:37;94683.59;;;5.94;54.51
21182;BME280;10749;46.296;7.524;2022-11-20T05:51:04;94690.31;;;5.97;54.72
21182;BME280;10749;46.296;7.524;2022-11-20T05:53:32;94696.56;;;5.96;54.58
21182;BME280;10749;46.296;7.524;2022-11-20T05:55:59;94689.84;;;6.01;54.25
21182;BME280;10749;46.296;7.524;2022-11-20T05:58:24;94699.50;;;5.93;54.56
21182;BME280;10749;46.296;7.524;2022-11-20T06:00:50;94694.59;;;5.98;54.61
21182;BME280;10749;46.296;7.524;2022-11-20T06:03:15;94695.22;;;5.92;54.53
21182;BME280;10749;46.296;7.524;2022-11-20T06:05:40;94687.03;;;5.95;54.14
21182;BME280;10749;46.296;7.524;2022-11-20T06:08:05;94690.06;;;6.08;54.06
21182;BME280;10749;46.296;7.524;2022-11-20T06:10:31;94690.75;;;6.18;54.25
21182;BME280;10749;46.296;7.524;2022-11-20T06:12:59;94689.84;;;6.27;54.23
21182;BME280;10749;46.296;7.524;2022-11-20T06:15:25;94692.81;;;6.32;54.39
21182;BME280;10749;46.296;7.524;2022-11-20T06:17:53;94697.44;;;6.38;54.10
21182;BME280;10749;46.296;7.524;2022-11-20T06:20:20;94696.09;;;6.34;54.32
21182;BME280;10749;46.296;7.524;2022-11-20T06:22:45;94692.97;;;6.31;54.34
21182;BME280;10749;46.296;7.524;2022-11-20T06:25:10;94689.09;;;6.17;54.01
21182;BME280;10749;46.296;7.524;2022-11-20T06:27:36;94685.69;;;6.17;54.34
21182;BME280;10749;46.296;7.524;2022-11-20T06:30:01;94680.44;;;6.17;54.46
21182;BME280;10749;46.296;7.524;2022-11-20T06:32:26;94687.16;;;6.19;54.46
21182;BME280;10749;46.296;7.524;2022-11-20T06:34:51;94691.09;;;6.15;54.41
21182;BME280;10749;46.296;7.524;2022-11-20T06:37:17;94688.47;;;6.15;54.45
21182;BME280;10749;46.296;7.524;2022-11-20T06:39:42;94692.66;;;6.00;54.33
21182;BME280;10749;46.296;7.524;2022-11-20T06:42:07;94700.53;;;6.00;53.99
21182;BME280;10749;46.296;7.524;2022-11-20T06:44:32;94700.59;;;6.08;54.50
21182;BME280;10749;46.296;7.524;2022-11-20T06:46:58;94701.50;;;5.99;54.98
21182;BME280;10749;46.296;7.524;2022-11-20T06:49:23;94711.75;;;6.10;54.78
21182;BME280;10749;46.296;7.524;2022-11-20T06:51:49;94709.28;;;6.09;53.97
21182;BME280;10749;46.296;7.524;2022-11-20T06:54:14;94710.25;;;6.08;54.49
21182;BME280;10749;46.296;7.524;2022-11-20T06:56:40;94704.19;;;6.07;54.59
21182;BME280;10749;46.296;7.524;2022-11-20T06:59:06;94702.53;;;6.06;54.56
21182;BME280;10749;46.296;7.524;2022-11-20T07:01:32;94709.44;;;6.07;54.63
21182;BME280;10749;46.296;7.524;2022-11-20T07:03:57;94710.72;;;6.03;54.72
21182;BME280;10749;46.296;7.524;2022-11-20T07:06:22;94712.94;;;5.90;54.70
21182;BME280;10749;46.296;7.524;2022-11-20T07:08:50;94714.59;;;5.91;54.32
21182;BME280;10749;46.296;7.524;2022-11-20T07:11:16;94710.75;;;5.85;54.26
21182;BME280;10749;46.296;7.524;2022-11-20T07:13:42;94716.41;;;5.90;54.36
21182;BME280;10749;46.296;7.524;2022-11-20T07:16:08;94716.94;;;6.02;54.70
21182;BME280;10749;46.296;7.524;2022-11-20T07:18:33;94722.63;;;6.15;54.93
21182;BME280;10749;46.296;7.524;2022-11-20T07:21:01;94730.09;;;6.28;54.84
21182;BME280;10749;46.296;7.524;2022-11-20T07:23:26;94728.28;;;6.28;54.75
21182;BME280;10749;46.296;7.524;2022-11-20T07:25:51;94729.63;;;6.32;54.28
21182;BME280;10749;46.296;7.524;2022-11-20T07:28:17;94721.38;;;6.27;54.26
21182;BME280;10749;46.296;7.524;2022-11-20T07:30:42;94718.38;;;6.22;54.64
21182;BME280;10749;46.296;7.524;2022-11-20T07:33:07;94735.84;;;6.31;54.70
21182;BME280;10749;46.296;7.524;2022-11-20T07:35:32;94731.56;;;6.30;54.68
21182;BME280;10749;46.296;7.524;2022-11-20T07:37:58;94718.78;;;6.35;54.65
21182;BME280;10749;46.296;7.524;2022-11-20T07:40:23;94722.38;;;6.34;54.91
21182;BME280;10749;46.296;7.524;2022-11-20T07:42:53;94720.44;;;6.36;54.70
21182;BME280;10749;46.296;7.524;2022-11-20T07:45:20;94726.38;;;6.46;54.60
21182;BME280;10749;46.296;7.524;2022-11-20T07:47:46;94731.97;;;6.43;54.63
21182;BME280;10749;46.296;7.524;2022-11-20T07:50:12;94737.31;;;6.34;54.78
21182;BME280;10749;46.296;7.524;2022-11-20T07:52:37;94731.84;;;6.19;54.58
21182;BME280;10749;46.296;7.524;2022-11-20T07:55:03;94724.00;;;6.27;54.48
21182;BME280;10749;46.296;7.524;2022-11-20T07:57:28;94729.94;;;6.29;54.86
21182;BME280;10749;46.296;7.524;2022-11-20T07:59:53;94728.97;;;6.38;54.98
21182;BME280;10749;46.296;7.524;2022-11-20T08:02:19;94737.53;;;6.40;55.06
21182;BME280;10749;46.296;7.524;2022-11-20T08:04:44;94734.31;;;6.55;54.48
21182;BME280;10749;46.296;7.524;2022-11-20T08:07:09;94735.03;;;6.65;54.60
21182;BME280;10749;46.296;7.524;2022-11-20T08:09:35;94734.44;;;6.87;54.63
21182;BME280;10749;46.296;7.524;2022-11-20T08:12:00;94744.53;;;7.00;54.64
21182;BME280;10749;46.296;7.524;2022-11-20T08:14:44;94740.75;;;7.10;54.46
21182;BME280;10749;46.296;7.524;2022-11-20T08:17:09;94743.56;;;7.17;54.30
21182;BME280;10749;46.296;7.524;2022-11-20T08:19:35;94743.25;;;7.20;54.15
21182;BME280;10749;46.296;7.524;2022-11-20T08:22:00;94745.41;;;7.24;54.28
21182;BME280;10749;46.296;7.524;2022-11-20T08:24:25;94745.72;;;7.29;54.19
21182;BME280;10749;46.296;7.524;2022-11-20T08:26:51;94750.50;;;7.42;53.98
21182;BME280;10749;46.296;7.524;2022-11-20T08:29:17;94744.28;;;7.59;53.86
21182;BME280;10749;46.296;7.524;2022-11-20T08:31:43;94742.47;;;7.76;53.64
21182;BME280;10749;46.296;7.524;2022-11-20T08:34:08;94744.94;;;7.85;53.61
21182;BME280;10749;46.296;7.524;2022-11-20T08:36:34;94745.59;;;7.87;53.30
21182;BME280;10749;46.296;7.524;2022-11-20T08:39:00;94743.63;;;7.89;53.39
21182;BME280;10749;46.296;7.524;2022-11-20T08:41:25;94740.31;;;8.04;53.25
21182;BME280;10749;46.296;7.524;2022-11-20T08:44:10;94734.53;;;8.08;53.03
21182;BME280;10749;46.296;7.524;2022-11-20T08:46:37;94741.94;;;8.13;52.94
21182;BME280;10749;46.296;7.524;2022-11-20T08:49:04;94747.41;;;8.19;53.15
21182;BME280;10749;46.296;7.524;2022-11-20T08:51:30;94747.06;;;8.30;52.83
21182;BME280;10749;46.296;7.524;2022-11-20T08:53:55;94746.03;;;8.48;53.06
21182;BME280;10749;46.296;7.524;2022-11-20T08:56:21;94737.41;;;8.62;52.82
21182;BME280;10749;46.296;7.524;2022-11-20T08:58:46;94742.00;;;8.76;52.78
21182;BME280;10749;46.296;7.524;2022-11-20T09:01:11;94742.06;;;8.91;52.44
21182;BME280;10749;46.296;7.524;2022-11-20T09:03:37;94736.25;;;9.03;52.66
21182;BME280;10749;46.296;7.524;2022-11-20T09:06:05;94741.25;;;8.98;52.57
21182;BME280;10749;46.296;7.524;2022-11-20T09:08:31;94735.53;;;9.17;52.49
21182;BME280;10749;46.296;7.524;2022-11-20T09:10:57;94734.03;;;9.23;52.26
21182;BME280;10749;46.296;7.524;2022-11-20T09:13:24;94734.50;;;9.26;52.32
21182;BME280;10749;46.296;7.524;2022-11-20T09:16:06;94735.47;;;9.25;51.98
21182;BME280;10749;46.296;7.524;2022-11-20T09:18:34;94735.16;;;9.20;51.52
21182;BME280;10749;46.296;7.524;2022-11-20T09:21:03;94735.44;;;9.34;52.23
21182;BME280;10749;46.296;7.524;2022-11-20T09:23:34;94729.53;;;9.23;51.79
21182;BME280;10749;46.296;7.524;2022-11-20T09:26:09;94729.69;;;9.30;51.53
21182;BME280;10749;46.296;7.524;2022-11-20T09:28:35;94727.81;;;9.39;51.64
21182;BME280;10749;46.296;7.524;2022-11-20T09:31:00;94742.63;;;9.48;51.85
21182;BME280;10749;46.296;7.524;2022-11-20T09:33:26;94734.78;;;9.54;51.64
21182;BME280;10749;46.296;7.524;2022-11-20T09:35:52;94731.78;;;9.57;51.47
21182;BME280;10749;46.296;7.524;2022-11-20T09:38:17;94733.53;;;9.65;51.50
21182;BME280;10749;46.296;7.524;2022-11-20T09:41:04;94738.91;;;9.80;51.52
21182;BME280;10749;46.296;7.524;2022-11-20T09:46:09;94739.88;;;10.01;51.67
21182;BME280;10749;46.296;7.524;2022-11-20T09:51:31;94725.38;;;9.97;51.24
21182;BME280;10749;46.296;7.524;2022-11-20T09:54:13;94725.47;;;9.89;51.04
21182;BME280;10749;46.296;7.524;2022-11-20T09:56:50;94721.38;;;10.01;51.17
21182;BME280;10749;46.296;7.524;2022-11-20T09:59:33;94728.88;;;10.12;51.26
21182;BME280;10749;46.296;7.524;2022-11-20T10:02:00;94719.25;;;10.19;51.01
21182;BME280;10749;46.296;7.524;2022-11-20T10:04:29;94720.19;;;10.27;51.15
21182;BME280;10749;46.296;7.524;2022-11-20T10:07:08;94723.09;;;10.32;50.96
21182;BME280;10749;46.296;7.524;2022-11-20T10:09:40;94718.81;;;10.31;50.59
21182;BME280;10749;46.296;7.524;2022-11-20T10:18:19;94708.78;;;10.41;50.63
21182;BME280;10749;46.296;7.524;2022-11-20T10:21:20;94715.63;;;10.50;50.53
21182;BME280;10749;46.296;7.524;2022-11-20T10:29:14;94718.78;;;11.04;50.73
21182;BME280;10749;46.296;7.524;2022-11-20T10:31:45;94715.09;;;11.20;50.47
21182;BME280;10749;46.296;7.524;2022-11-20T10:37:05;94716.97;;;11.40;50.53
21182;BME280;10749;46.296;7.524;2022-11-20T10:42:11;94704.81;;;11.46;49.77
21182;BME280;10749;46.296;7.524;2022-11-20T10:44:39;94708.06;;;11.48;50.00
21182;BME280;10749;46.296;7.524;2022-11-20T10:47:27;94707.72;;;11.51;49.64
21182;BME280;10749;46.296;7.524;2022-11-20T10:49:57;94693.31;;;11.60;50.07
21182;BME280;10749;46.296;7.524;2022-11-20T11:00:46;94669.84;;;11.99;49.39
21182;BME280;10749;46.296;7.524;2022-11-20T11:03:23;94665.34;;;12.00;48.82
21182;BME280;10749;46.296;7.524;2022-11-20T11:05:55;94660.34;;;11.84;48.65
21182;BME280;10749;46.296;7.524;2022-11-20T11:08:24;94660.88;;;12.00;49.37
21182;BME280;10749;46.296;7.524;2022-11-20T11:10:55;94652.03;;;11.93;48.39
21182;BME280;10749;46.296;7.524;2022-11-20T11:13:25;94641.78;;;12.12;49.20
21182;BME280;10749;46.296;7.524;2022-11-20T11:15:51;94650.88;;;11.75;47.06
21182;BME280;10749;46.296;7.524;2022-11-20T11:18:31;94651.13;;;11.80;48.26
21182;BME280;10749;46.296;7.524;2022-11-20T11:20:59;94651.31;;;12.34;48.60
21182;BME280;10749;46.296;7.524;2022-11-20T11:23:34;94640.50;;;12.76;48.87
21182;BME280;10749;46.296;7.524;2022-11-20T11:26:03;94638.06;;;12.81;47.95
21182;BME280;10749;46.296;7.524;2022-11-20T11:28:28;94637.28;;;12.87;48.39
21182;BME280;10749;46.296;7.524;2022-11-20T11:30:54;94644.16;;;13.16;48.75
21182;BME280;10749;46.296;7.524;2022-11-20T11:33:23;94638.25;;;13.34;48.25
21182;BME280;10749;46.296;7.524;2022-11-20T11:35:51;94637.69;;;13.58;48.57
21182;BME280;10749;46.296;7.524;2022-11-20T11:38:43;94636.50;;;13.74;48.51
21182;BME280;10749;46.296;7.524;2022-11-20T11:41:19;94634.22;;;13.51;46.01
21182;BME280;10749;46.296;7.524;2022-11-20T11:43:56;94619.06;;;12.84;46.15
21182;BME280;10749;46.296;7.524;2022-11-20T11:46:54;94623.53;;;13.25;46.48
21182;BME280;10749;46.296;7.524;2022-11-20T11:49:20;94623.44;;;13.05;45.86
21182;BME280;10749;46.296;7.524;2022-11-20T11:54:20;94621.13;;;13.89;47.25
21182;BME280;10749;46.296;7.524;2022-11-20T11:56:49;94625.22;;;13.59;45.41
21182;BME280;10749;46.296;7.524;2022-11-20T11:59:47;94624.00;;;13.87;45.98
21182;BME280;10749;46.296;7.524;2022-11-20T12:02:31;94615.41;;;14.12;46.50
21182;BME280;10749;46.296;7.524;2022-11-20T12:05:03;94619.88;;;14.38;46.55
21182;BME280;10749;46.296;7.524;2022-11-20T12:07:47;94611.28;;;14.49;46.61
21182;BME280;10749;46.296;7.524;2022-11-20T12:10:40;94604.69;;;14.51;45.27
21182;BME280;10749;46.296;7.524;2022-11-20T12:13:24;94606.19;;;13.88;43.80
21182;BME280;10749;46.296;7.524;2022-11-20T12:15:52;94605.38;;;13.55;43.32
21182;BME280;10749;46.296;7.524;2022-11-20T12:18:19;94611.91;;;14.18;44.93
21182;BME280;10749;46.296;7.524;2022-11-20T12:26:16;94594.97;;;13.66;41.79
21182;BME280;10749;46.296;7.524;2022-11-20T12:29:07;94578.16;;;13.59;43.71
21182;BME280;10749;46.296;7.524;2022-11-20T12:34:43;94581.78;;;14.37;43.85
21182;BME280;10749;46.296;7.524;2022-11-20T12:43:24;94564.44;;;15.17;43.94
21182;BME280;10749;46.296;7.524;2022-11-20T12:46:12;94559.78;;;15.44;44.10
21182;BME280;10749;46.296;7.524;2022-11-20T12:49:02;94563.22;;;15.51;43.59
21182;BME280;10749;46.296;7.524;2022-11-20T12:57:29;94563.91;;;14.64;39.42
21182;BME280;10749;46.296;7.524;2022-11-20T13:08:35;94559.81;;;14.61;42.72
21182;BME280;10749;46.296;7.524;2022-11-20T13:13:51;94551.72;;;14.23;41.78
21182;BME280;10749;46.296;7.524;2022-11-20T13:16:45;94549.06;;;14.17;42.20
21182;BME280;10749;46.296;7.524;2022-11-20T13:19:15;94538.47;;;13.97;42.13
21182;BME280;10749;46.296;7.524;2022-11-20T13:21:44;94536.41;;;13.93;42.31
21182;BME280;10749;46.296;7.524;2022-11-20T13:24:23;94527.44;;;13.80;42.17
21182;BME280;10749;46.296;7.524;2022-11-20T13:27:01;94516.59;;;13.29;41.59
21182;BME280;10749;46.296;7.524;2022-11-20T13:29:27;94519.81;;;13.05;41.21
21182;BME280;10749;46.296;7.524;2022-11-20T13:34:27;94512.03;;;12.77;41.82
21182;BME280;10749;46.296;7.524;2022-11-20T13:36:55;94515.91;;;12.81;41.98
21182;BME280;10749;46.296;7.524;2022-11-20T13:39:35;94508.97;;;12.87;41.94
21182;BME280;10749;46.296;7.524;2022-11-20T13:42:19;94501.22;;;12.85;42.12
21182;BME280;10749;46.296;7.524;2022-11-20T13:44:53;94495.28;;;12.83;41.13
21182;BME280;10749;46.296;7.524;2022-11-20T13:47:24;94486.88;;;12.73;41.96
21182;BME280;10749;46.296;7.524;2022-11-20T13:49:51;94479.75;;;12.74;41.86
21182;BME280;10749;46.296;7.524;2022-11-20T13:52:36;94479.47;;;12.56;41.83
21182;BME280;10749;46.296;7.524;2022-11-20T14:01:17;94477.34;;;11.49;41.51
21182;BME280;10749;46.296;7.524;2022-11-20T14:03:46;94474.03;;;11.47;41.72
21182;BME280;10749;46.296;7.524;2022-11-20T14:06:26;94477.59;;;11.54;41.76
21182;BME280;10749;46.296;7.524;2022-11-20T14:08:52;94478.19;;;11.56;41.86
21182;BME280;10749;46.296;7.524;2022-11-20T14:11:20;94470.28;;;11.91;42.06
21182;BME280;10749;46.296;7.524;2022-11-20T14:14:03;94481.19;;;12.16;41.54
21182;BME280;10749;46.296;7.524;2022-11-20T14:16:35;94471.66;;;12.28;41.93
21182;BME280;10749;46.296;7.524;2022-11-20T14:21:48;94483.28;;;12.27;41.69
21182;BME280;10749;46.296;7.524;2022-11-20T14:24:18;94473.53;;;11.93;41.39
21182;BME280;10749;46.296;7.524;2022-11-20T14:26:45;94473.19;;;12.02;41.54
21182;BME280;10749;46.296;7.524;2022-11-20T14:29:16;94480.13;;;12.03;41.57
21182;BME280;10749;46.296;7.524;2022-11-20T14:31:44;94485.44;;;12.03;41.76
21182;BME280;10749;46.296;7.524;2022-11-20T14:34:25;94473.56;;;11.99;41.25
21182;BME280;10749;46.296;7.524;2022-11-20T14:36:57;94483.78;;;12.02;41.68
21182;BME280;10749;46.296;7.524;2022-11-20T14:39:31;94478.16;;;11.84;41.52